Wetter In Nordholz

Wetter. Link zur aktuellen Windanzeige. Nordholz: METAR: 2020/05/07 10:48 ETMN 071048Z 30012KT 9999 SCT020 11/05 Q1024 BLU+BLU+ TAF: 2020/05/07 11:31 TAF ETMN 071010Z 0711/0720 30012G22KT 9999 NSW SCT025 Wind EDXN: 07.05. 09:40z 280/11G15kt 07.05. 09:50z 290/08G16kt 07.05. 10:00z 290/11G17kt 07.05. 10:10z 270/11G15kt 07.05. 10:20z 300/11G16kt 07.05. 10:30z.

wetter nordholz wurster nordseeküste

Das Wetter in Nordholz – Wettervorhersage für 14 Tage. Aktuelles Wetter in Nordholz: Temperatur, Schnee, Regen, Wind, Luftfeuchtigkeit, Wetterwarnungen, etc

Geile Bruste Sie sagt: "Die meisten sind beim Sex immer noch so schweigsam, als wären sie in einer Bibliothek! Obwohl sich so
Micaëla Schäfer Micaela Schäfer arbeitet als DJane und lebt von öffentlichen Auftritten. Momentan fällt das alles weg. Nur ihr zweites. Macht sich
Livecam Hamburg Landungsbrücken Ein Streit um die Maskenpflicht in Bussen und Bahnen ist in Gelsenkirchen eskaliert. Wie die Polizei am Freitag mitteilte, wies

Das Wetter in Nordholz bei Bremerhaven heute, Donnerstag, 14.5.2020: Am Vormittag wechselnd bewölkt bei 9 Grad, nachmittags sonnig mit ein paar Wolken bei 9 Grad. Es ist teilweise windig. Die Nacht verläuft meist dicht bewölkt bei 6 Grad.

Nordholz, Niedersachsen Wettervorhersage für die kommenden 7 Tage hier finden Sie alle Wetterdaten für Nordholz für 1 Woche – wetter.de ☀

Das aktuelle Wetter in Nordholz und Aussichten für die nächsten 7 Tage finden Sie hier. Regen oder Sonne, Shorts oder lieber Gummistiefel? Hier erfahren Sie es!

Das Wetter in Nordholz (Minden-Lübbecke, Nordrhein-Westfalen, Deutschland): detaillierte Wettervorhersage, 14-Tage-Trend, aktuelles Regenradar bzw. Schneeradar.

Wetter. Link zur aktuellen Windanzeige. Nordholz: METAR: 2020/05/07 10:48 ETMN 071048Z 30012KT 9999 SCT020 11/05 Q1024 BLU+BLU+ TAF: 2020/05/07 11:31 TAF ETMN 071010Z 0711/0720 30012G22KT 9999 NSW SCT025 Wind EDXN: 07.05. 09:40z 280/11G15kt 07.05. 09:50z 290/08G16kt 07.05. 10:00z 290/11G17kt 07.05. 10:10z 270/11G15kt 07.05. 10:20z 300/11G16kt 07.05. 10:30z.

Das Wetter in Nordholz – Wettervorhersage für 14 Tage. Aktuelles Wetter in Nordholz: Temperatur, Schnee, Regen, Wind, Luftfeuchtigkeit, Wetterwarnungen, etc

Das Wetter in Nordholz (Dithmarschen, Schleswig-Holstein, Deutschland): detaillierte Wettervorhersage, 14-Tage-Trend, aktuelles Regenradar bzw. Schneeradar.

Das Wetter in Nordholz (Brekendorf) – Wettervorhersage für heute, morgen und die kommenden Tage mit Wetterbericht und Regenradar von wetteronline.de

Katja Krasavice Neuer Porno Erst vor Kurzem gab Katja Krasavice auf Instagram bekannt, dass sie bereits an neuen Songs arbeitet. Und dass, obwohl ihr.

Das Wetter in Nordholz bei Bremerhaven heute, Donnerstag, 14.5.2020: Am Vormittag wechselnd bewölkt bei 9 Grad, nachmittags sonnig mit ein paar Wolken bei 9 Grad. Es ist teilweise windig. Die Nacht verläuft meist dicht bewölkt bei 6 Grad.

Blick auf den Bundeswehr-Flugplatz in NordholzWetter Nordholz – Stündliche Wettervorhersage – 14 Tage – 11 Uhr in Nordholz : Das Wetter ist relativ schön, es gibt jedoch einige Wolken. Die Windstärke liegt voraussichtlich bei 19 km/h. Die Windstärke liegt voraussichtlich bei 19 km/h. 17 Uhr in Nordholz .

wetter nordholz 7 tage

Wetter. Link zur aktuellen Windanzeige. Nordholz: METAR: 2020/05/07 10:48 ETMN 071048Z 30012KT 9999 SCT020 11/05 Q1024 BLU+BLU+ TAF: 2020/05/07 11:31 TAF ETMN 071010Z 0711/0720 30012G22KT 9999 NSW SCT025 Wind EDXN: 07.05. 09:40z 280/11G15kt 07.05. 09:50z 290/08G16kt 07.05. 10:00z 290/11G17kt 07.05. 10:10z 270/11G15kt 07.05. 10:20z 300/11G16kt 07.05. 10:30z.

Das 14-Tage-Wetter für die Region Wurster Nordseeküste von wetteronline.de

wetter in nordholz 14 tage

webcam nordholz

Weitere Details zum Wetter in Nordholz und Umgebung Wetter heute, 16.05.2020 In Nordholz ist es am Morgen teils wolkig und teils heiter bei Temperaturen von 9°C.

Das 14-Tage-Wetter für die Region Wurster Nordseeküste von wetteronline.de